createdAt,value
2018-04-18T00:00:15.897Z,12.00
2018-04-18T00:02:42.935Z,11.80
2018-04-18T00:05:10.659Z,11.80
2018-04-18T00:07:37.641Z,11.60
2018-04-18T00:10:04.667Z,11.50
2018-04-18T00:12:31.654Z,11.40
2018-04-18T00:14:58.643Z,11.40
2018-04-18T00:17:25.682Z,11.40
2018-04-18T00:19:53.521Z,11.30
2018-04-18T00:24:48.115Z,11.20
2018-04-18T00:27:18.880Z,11.30
2018-04-18T00:29:45.862Z,11.30
2018-04-18T00:32:12.889Z,11.30
2018-04-18T00:34:39.876Z,11.30
2018-04-18T00:37:06.864Z,11.30
2018-04-18T00:42:12.362Z,13.20
2018-04-18T00:44:39.413Z,11.20
2018-04-18T00:47:06.398Z,11.10
2018-04-18T00:49:33.634Z,11.00
2018-04-18T00:52:00.644Z,11.00
2018-04-18T00:54:27.635Z,11.00
2018-04-18T00:56:54.648Z,10.90
2018-04-18T00:59:21.670Z,11.00
2018-04-18T01:01:48.659Z,11.00
2018-04-18T01:04:15.690Z,10.90
2018-04-18T01:06:42.707Z,10.90
2018-04-18T01:09:09.695Z,10.90
2018-04-18T01:11:36.679Z,10.90
2018-04-18T01:14:03.699Z,10.80
2018-04-18T01:16:30.687Z,10.80
2018-04-18T01:18:57.675Z,10.80
2018-04-18T01:23:51.774Z,10.90
2018-04-18T01:26:18.775Z,10.90
2018-04-18T01:28:46.643Z,10.80
2018-04-18T01:31:13.651Z,10.80
2018-04-18T01:33:40.624Z,10.70
2018-04-18T01:36:07.642Z,10.60
2018-04-18T01:38:34.624Z,10.60
2018-04-18T01:41:02.006Z,10.30
2018-04-18T01:43:29.033Z,10.20
2018-04-18T01:45:56.025Z,10.20
2018-04-18T01:48:23.009Z,10.20
2018-04-18T01:50:50.036Z,10.20
2018-04-18T01:53:18.979Z,10.30
2018-04-18T01:55:45.962Z,10.30
2018-04-18T01:58:12.988Z,10.30
2018-04-18T02:03:07.045Z,10.20
2018-04-18T02:08:12.528Z,10.00
2018-04-18T02:10:39.560Z,10.00
2018-04-18T02:13:06.566Z,10.00
2018-04-18T02:15:33.568Z,10.10
2018-04-18T02:18:00.621Z,10.10
2018-04-18T02:22:54.736Z,10.20
2018-04-18T02:25:21.759Z,10.20
2018-04-18T02:27:48.765Z,10.10
2018-04-18T02:30:15.762Z,10.20
2018-04-18T02:32:42.796Z,10.10
2018-04-18T02:35:09.786Z,10.10
2018-04-18T02:37:36.783Z,10.10
2018-04-18T02:40:03.818Z,10.00
2018-04-18T02:42:30.809Z,10.10
2018-04-18T02:44:57.795Z,10.10
2018-04-18T02:47:24.829Z,10.10
2018-04-18T02:49:52.760Z,10.00
2018-04-18T02:52:19.738Z,9.90
2018-04-18T02:54:46.767Z,10.00
2018-04-18T02:57:13.756Z,10.00
2018-04-18T02:59:40.750Z,10.00
2018-04-18T03:02:07.795Z,9.90
2018-04-18T03:04:34.785Z,9.90
2018-04-18T03:07:01.776Z,9.90
2018-04-18T03:09:28.803Z,9.80
2018-04-18T03:11:55.788Z,9.80
2018-04-18T03:14:22.773Z,9.80
2018-04-18T03:16:50.614Z,9.80
2018-04-18T03:21:49.570Z,9.80
2018-04-18T03:24:17.081Z,9.80
2018-04-18T03:26:44.076Z,9.70
2018-04-18T03:29:11.062Z,9.70
2018-04-18T03:31:38.094Z,9.70
2018-04-18T03:36:46.550Z,9.60
2018-04-18T03:39:13.704Z,9.60
2018-04-18T03:41:40.528Z,9.60
2018-04-18T03:44:07.562Z,9.60
2018-04-18T03:46:35.373Z,9.50
2018-04-18T03:49:02.363Z,9.50
2018-04-18T03:51:29.377Z,9.40
2018-04-18T03:53:56.362Z,9.40
2018-04-18T03:56:23.349Z,9.30
2018-04-18T03:58:50.687Z,9.30
2018-04-18T04:01:17.619Z,9.30
2018-04-18T04:03:44.617Z,9.30
2018-04-18T04:06:13.579Z,9.30
2018-04-18T04:11:07.666Z,9.20
2018-04-18T04:13:34.679Z,9.20
2018-04-18T04:16:01.672Z,9.10
2018-04-18T04:18:40.562Z,9.10
2018-04-18T04:21:22.992Z,9.10
2018-04-18T04:24:01.897Z,9.10
2018-04-18T04:28:51.869Z,8.90
2018-04-18T04:31:19.347Z,8.90
2018-04-18T04:33:46.334Z,8.90
2018-04-18T04:36:13.321Z,8.90
2018-04-18T04:38:40.335Z,8.90
2018-04-18T04:41:07.311Z,8.80
2018-04-18T04:43:34.303Z,8.80
2018-04-18T04:46:01.346Z,8.80
2018-04-18T04:48:28.328Z,8.90
2018-04-18T04:50:55.319Z,8.90
2018-04-18T04:53:22.339Z,9.00
2018-04-18T04:55:49.321Z,9.00
2018-04-18T04:58:16.329Z,9.10
2018-04-18T05:00:43.342Z,8.80
2018-04-18T05:03:10.365Z,8.90
2018-04-18T05:05:37.361Z,8.90
2018-04-18T05:08:06.029Z,9.10
2018-04-18T05:10:33.072Z,9.10
2018-04-18T05:13:00.080Z,9.20
2018-04-18T05:20:21.338Z,9.10
2018-04-18T05:22:48.369Z,9.10
2018-04-18T05:25:15.355Z,9.00
2018-04-18T05:27:42.348Z,9.30
2018-04-18T05:32:36.458Z,9.40
2018-04-18T05:35:03.453Z,9.10
2018-04-18T05:37:30.481Z,9.30
2018-04-18T05:39:57.479Z,9.00
2018-04-18T05:44:51.589Z,9.20
2018-04-18T05:47:18.586Z,9.40
2018-04-18T05:49:45.580Z,9.50
2018-04-18T05:54:53.066Z,9.60
2018-04-18T05:57:21.050Z,9.50
2018-04-18T05:59:49.001Z,9.50
2018-04-18T06:02:16.000Z,9.30
2018-04-18T06:04:43.296Z,9.40
2018-04-18T06:07:10.287Z,9.60
2018-04-18T06:09:37.290Z,9.70
2018-04-18T06:12:04.312Z,9.80
2018-04-18T06:14:31.329Z,9.70
2018-04-18T06:16:58.581Z,10.30
2018-04-18T06:19:25.640Z,9.80
2018-04-18T06:21:52.615Z,9.90
2018-04-18T06:24:19.613Z,9.90
2018-04-18T06:26:47.581Z,10.50
2018-04-18T06:29:14.583Z,10.40
2018-04-18T06:34:10.555Z,10.40
2018-04-18T06:36:37.550Z,10.40
2018-04-18T06:39:05.313Z,10.70
2018-04-18T06:43:59.434Z,10.80
2018-04-18T06:46:26.436Z,11.10
2018-04-18T06:48:53.460Z,11.10
2018-04-18T06:51:20.480Z,11.50
2018-04-18T06:53:47.473Z,11.40
2018-04-18T06:56:14.488Z,11.50
2018-04-18T06:58:41.485Z,12.00
2018-04-18T07:01:08.507Z,12.30
2018-04-18T07:03:35.538Z,11.80
2018-04-18T07:06:02.552Z,11.30
2018-04-18T07:08:29.562Z,11.80
2018-04-18T07:13:35.410Z,13.20
2018-04-18T07:16:02.431Z,13.10
2018-04-18T07:18:29.428Z,13.20
2018-04-18T07:20:56.433Z,13.40
2018-04-18T07:23:23.455Z,13.70
2018-04-18T07:25:50.461Z,13.90
2018-04-18T07:28:17.461Z,13.80
2018-04-18T07:30:44.472Z,14.40
2018-04-18T07:33:11.455Z,14.90
2018-04-18T07:35:39.389Z,14.40
2018-04-18T07:38:06.402Z,14.80
2018-04-18T07:43:00.942Z,14.60
2018-04-18T07:45:28.448Z,15.10
2018-04-18T07:47:56.941Z,15.00
2018-04-18T07:50:23.945Z,14.80
2018-04-18T07:52:50.996Z,15.30
2018-04-18T07:55:22.292Z,15.00
2018-04-18T07:57:45.840Z,15.30
2018-04-18T08:00:12.876Z,14.90
2018-04-18T08:02:39.896Z,15.30
2018-04-18T08:05:06.885Z,15.80
2018-04-18T08:07:33.930Z,15.50
2018-04-18T08:10:00.968Z,15.80
2018-04-18T08:12:27.931Z,15.70
2018-04-18T08:17:28.843Z,15.50
2018-04-18T08:19:55.880Z,16.10
2018-04-18T08:22:23.705Z,16.40
2018-04-18T08:24:50.717Z,17.20
2018-04-18T08:27:17.771Z,16.50
2018-04-18T08:29:44.765Z,16.30
2018-04-18T08:32:11.768Z,15.70
2018-04-18T08:34:38.790Z,16.70
2018-04-18T08:39:44.289Z,16.70
2018-04-18T08:42:11.289Z,17.40
2018-04-18T08:44:38.293Z,16.80
2018-04-18T08:47:05.314Z,17.50
2018-04-18T08:51:59.384Z,17.80
2018-04-18T08:54:27.362Z,17.70
2018-04-18T08:59:22.867Z,17.90
2018-04-18T09:01:49.897Z,18.20
2018-04-18T09:04:16.883Z,17.80
2018-04-18T09:09:10.967Z,19.40
2018-04-18T09:11:37.952Z,19.10
2018-04-18T09:14:04.954Z,18.10
2018-04-18T09:16:31.963Z,18.30
2018-04-18T09:18:58.962Z,18.60
2018-04-18T09:21:25.932Z,18.80
2018-04-18T09:23:52.966Z,19.60
2018-04-18T09:26:19.961Z,19.90
2018-04-18T09:28:46.961Z,20.00
2018-04-18T09:31:14.315Z,20.60
2018-04-18T09:33:41.340Z,20.20
2018-04-18T09:36:08.301Z,20.50
2018-04-18T09:38:35.326Z,20.70
2018-04-18T09:41:03.281Z,20.40
2018-04-18T09:43:30.269Z,20.90
2018-04-18T09:45:58.110Z,20.40
2018-04-18T09:48:25.095Z,20.90
2018-04-18T09:50:52.086Z,20.80
2018-04-18T09:58:24.726Z,21.10
2018-04-18T10:00:51.683Z,21.20
2018-04-18T10:03:18.664Z,21.80
2018-04-18T10:05:46.633Z,21.60
2018-04-18T10:08:13.629Z,21.90
2018-04-18T10:10:40.616Z,21.20
2018-04-18T10:13:07.631Z,21.50
2018-04-18T10:15:34.621Z,22.00
2018-04-18T10:18:01.605Z,21.80
2018-04-18T10:20:28.626Z,20.70
2018-04-18T10:25:22.672Z,21.40
2018-04-18T10:27:49.685Z,21.30
2018-04-18T10:30:16.670Z,21.90
2018-04-18T10:32:44.592Z,21.40
2018-04-18T10:35:11.622Z,21.40
2018-04-18T10:37:38.618Z,21.60
2018-04-18T10:40:05.606Z,21.90
2018-04-18T10:42:32.626Z,22.30
2018-04-18T10:44:59.645Z,22.70
2018-04-18T10:47:26.628Z,22.00
2018-04-18T10:49:53.668Z,22.20
2018-04-18T10:52:21.464Z,21.70
2018-04-18T10:54:48.461Z,21.30
2018-04-18T10:57:16.320Z,22.00
2018-04-18T10:59:43.306Z,21.70
2018-04-18T11:04:37.445Z,23.00
2018-04-18T11:07:04.408Z,22.50
2018-04-18T11:09:31.401Z,21.40
2018-04-18T11:11:58.414Z,22.00
2018-04-18T11:14:25.411Z,22.10
2018-04-18T11:16:52.413Z,21.00
2018-04-18T11:19:19.463Z,21.30
2018-04-18T11:21:48.780Z,20.90
2018-04-18T11:26:54.301Z,21.40
2018-04-18T11:29:21.272Z,21.80
2018-04-18T11:31:48.257Z,21.60
2018-04-18T11:34:15.279Z,21.80
2018-04-18T11:36:43.236Z,21.30
2018-04-18T11:39:10.219Z,21.80
2018-04-18T11:41:37.240Z,21.90
2018-04-18T11:44:04.230Z,22.30
2018-04-18T11:46:31.531Z,21.70
2018-04-18T11:48:58.552Z,21.50
2018-04-18T11:51:25.539Z,21.60
2018-04-18T11:53:52.523Z,21.70
2018-04-18T11:56:19.572Z,21.80
2018-04-18T11:58:46.567Z,22.10
2018-04-18T12:01:16.515Z,22.70
2018-04-18T12:03:43.534Z,22.40
2018-04-18T12:06:10.532Z,23.20
2018-04-18T12:08:37.525Z,22.50
2018-04-18T12:11:05.355Z,22.10
2018-04-18T12:16:00.413Z,22.30
2018-04-18T12:18:27.431Z,22.10
2018-04-18T12:20:54.425Z,21.90
2018-04-18T12:23:21.426Z,21.90
2018-04-18T12:25:51.193Z,22.30
2018-04-18T12:28:16.322Z,22.40
2018-04-18T12:33:10.406Z,23.50
2018-04-18T12:35:37.400Z,23.50
2018-04-18T12:38:04.396Z,23.20
2018-04-18T12:40:31.435Z,23.00
2018-04-18T12:42:59.376Z,23.40
2018-04-18T12:45:26.366Z,23.00
2018-04-18T12:50:36.612Z,23.30
2018-04-18T12:53:03.476Z,22.80
2018-04-18T12:55:30.474Z,22.90
2018-04-18T12:57:58.409Z,22.80
2018-04-18T13:00:25.427Z,23.40
2018-04-18T13:02:53.032Z,24.00
2018-04-18T13:05:20.220Z,24.20
2018-04-18T13:07:47.773Z,23.80
2018-04-18T13:12:54.895Z,23.80
2018-04-18T13:15:21.897Z,24.20
2018-04-18T13:17:48.888Z,24.10
2018-04-18T13:20:15.926Z,24.80
2018-04-18T13:25:09.998Z,23.30
2018-04-18T13:27:37.004Z,23.50
2018-04-18T13:30:03.990Z,23.30
2018-04-18T13:32:30.979Z,24.20
2018-04-18T13:34:58.425Z,24.50
2018-04-18T13:37:25.439Z,24.40
2018-04-18T13:39:52.787Z,24.30
2018-04-18T13:42:19.817Z,24.40
2018-04-18T13:44:46.813Z,25.20
2018-04-18T13:47:13.818Z,25.00
2018-04-18T13:49:40.843Z,24.80
2018-04-18T13:52:07.842Z,24.40
2018-04-18T13:54:34.839Z,24.00
2018-04-18T13:57:01.862Z,24.70
2018-04-18T13:59:28.854Z,24.50
2018-04-18T14:01:56.692Z,24.20
2018-04-18T14:04:23.716Z,23.60
2018-04-18T14:06:50.701Z,23.70
2018-04-18T14:09:17.681Z,23.60
2018-04-18T14:11:44.691Z,23.90
2018-04-18T14:14:11.665Z,23.70
2018-04-18T14:16:38.655Z,23.30
2018-04-18T14:19:06.376Z,23.60
2018-04-18T14:21:33.346Z,23.70
2018-04-18T14:24:00.332Z,24.10
2018-04-18T14:26:28.087Z,23.60
2018-04-18T14:28:55.113Z,23.50
2018-04-18T14:31:22.112Z,23.50
2018-04-18T14:36:27.642Z,23.20
2018-04-18T14:38:54.679Z,23.60
2018-04-18T14:41:21.670Z,23.50
2018-04-18T14:43:48.667Z,23.50
2018-04-18T14:46:15.697Z,23.30
2018-04-18T14:48:42.706Z,23.00
2018-04-18T14:51:09.684Z,23.20
2018-04-18T14:53:37.682Z,23.30
2018-04-18T14:56:04.669Z,23.60
2018-04-18T14:58:31.660Z,23.20
2018-04-18T15:00:58.685Z,23.40
2018-04-18T15:03:27.525Z,23.30
2018-04-18T15:08:21.624Z,23.00
2018-04-18T15:10:48.656Z,23.10
2018-04-18T15:13:15.616Z,23.20
2018-04-18T15:15:42.648Z,23.10
2018-04-18T15:20:36.708Z,23.00
2018-04-18T15:23:03.755Z,23.10
2018-04-18T15:25:30.750Z,23.10
2018-04-18T15:27:57.768Z,23.10
2018-04-18T15:30:24.759Z,23.00
2018-04-18T15:32:52.757Z,22.80
2018-04-18T15:35:19.772Z,23.00
2018-04-18T15:37:49.516Z,22.80
2018-04-18T15:40:16.992Z,22.80
2018-04-18T15:42:43.865Z,22.80
2018-04-18T15:45:11.398Z,22.80
2018-04-18T15:47:38.376Z,22.80
2018-04-18T15:50:06.234Z,23.20
2018-04-18T15:52:33.258Z,23.20
2018-04-18T15:57:27.322Z,22.90
2018-04-18T16:02:33.071Z,22.80
2018-04-18T16:05:01.036Z,22.80
2018-04-18T16:07:28.052Z,22.80
2018-04-18T16:09:55.362Z,22.90
2018-04-18T16:12:22.378Z,22.90
2018-04-18T16:14:49.355Z,22.70
2018-04-18T16:17:16.334Z,22.60
2018-04-18T16:19:43.347Z,22.70
2018-04-18T16:22:10.324Z,22.80
2018-04-18T16:24:37.311Z,22.90
2018-04-18T16:27:04.358Z,22.80
2018-04-18T16:32:21.275Z,22.70
2018-04-18T16:34:48.251Z,22.70
2018-04-18T16:37:15.230Z,22.70
2018-04-18T16:39:45.579Z,22.50
2018-04-18T16:42:12.563Z,22.50
2018-04-18T16:44:39.546Z,22.50
2018-04-18T16:47:06.559Z,22.40
2018-04-18T16:49:33.542Z,22.30
2018-04-18T16:52:00.535Z,22.30
2018-04-18T16:54:27.552Z,22.30
2018-04-18T16:56:55.471Z,22.00
2018-04-18T16:59:23.256Z,21.90
2018-04-18T17:01:51.088Z,21.70
2018-04-18T17:04:18.064Z,21.30
2018-04-18T17:06:46.066Z,21.30
2018-04-18T17:09:13.038Z,21.30
2018-04-18T17:11:40.868Z,21.30
2018-04-18T17:14:08.679Z,21.30
2018-04-18T17:16:36.434Z,21.30
2018-04-18T17:19:03.413Z,21.20
2018-04-18T17:21:32.799Z,21.10
2018-04-18T17:23:59.753Z,21.10
2018-04-18T17:26:26.744Z,21.10
2018-04-18T17:28:53.731Z,21.00
2018-04-18T17:31:20.760Z,20.90
2018-04-18T17:33:47.737Z,20.80
2018-04-18T17:36:14.719Z,20.80
2018-04-18T17:38:41.743Z,20.80
2018-04-18T17:41:08.735Z,20.70
2018-04-18T17:43:40.532Z,20.70
2018-04-18T17:46:08.391Z,20.70
2018-04-18T17:48:36.356Z,20.60
2018-04-18T17:51:03.328Z,20.50
2018-04-18T17:56:09.294Z,20.40
2018-04-18T17:58:37.174Z,20.20
2018-04-18T18:01:04.886Z,20.10
2018-04-18T18:05:58.983Z,20.10
2018-04-18T18:08:25.958Z,19.90
2018-04-18T18:10:52.945Z,19.90
2018-04-18T18:13:22.892Z,19.90
2018-04-18T18:15:52.235Z,19.80
2018-04-18T18:20:55.458Z,19.40
2018-04-18T18:23:22.451Z,19.40
2018-04-18T18:25:49.453Z,19.50
2018-04-18T18:28:16.488Z,19.50
2018-04-18T18:30:43.470Z,19.50
2018-04-18T18:33:10.452Z,19.40
2018-04-18T18:35:37.691Z,19.40
2018-04-18T18:38:04.690Z,19.30
2018-04-18T18:40:31.618Z,19.20
2018-04-18T18:42:59.040Z,19.20
2018-04-18T18:45:26.018Z,19.00
2018-04-18T18:47:52.991Z,18.90
2018-04-18T18:52:47.089Z,18.80
2018-04-18T18:55:14.070Z,18.90
2018-04-18T18:57:41.081Z,18.70
2018-04-18T19:00:08.085Z,18.70
2018-04-18T19:02:35.079Z,18.70
2018-04-18T19:05:02.687Z,18.70
2018-04-18T19:07:35.174Z,18.70
2018-04-18T19:12:38.416Z,18.30
2018-04-18T19:15:05.550Z,18.50
2018-04-18T19:17:32.561Z,18.40
2018-04-18T19:20:00.044Z,18.60
2018-04-18T19:22:27.045Z,18.50
2018-04-18T19:24:54.077Z,18.40
2018-04-18T19:27:21.132Z,18.40
2018-04-18T19:29:50.189Z,18.40
2018-04-18T19:32:17.996Z,18.20
2018-04-18T19:34:45.055Z,18.00
2018-04-18T19:39:52.199Z,17.90
2018-04-18T19:44:57.234Z,17.70
2018-04-18T19:52:42.793Z,17.60
2018-04-18T19:55:12.102Z,17.50
2018-04-18T19:57:39.899Z,17.40
2018-04-18T20:00:11.120Z,17.20
2018-04-18T20:05:17.194Z,17.20
2018-04-18T20:07:44.136Z,17.20
2018-04-18T20:10:14.417Z,17.10
2018-04-18T20:12:41.990Z,16.90
2018-04-18T20:17:56.012Z,16.80
2018-04-18T20:20:23.031Z,16.80
2018-04-18T20:22:50.606Z,16.80
2018-04-18T20:27:49.503Z,16.50
2018-04-18T20:30:16.587Z,16.60
2018-04-18T20:32:43.734Z,16.60
2018-04-18T20:35:10.806Z,16.40
2018-04-18T20:37:37.810Z,16.50
2018-04-18T20:40:04.842Z,16.30
2018-04-18T20:44:58.965Z,16.10
2018-04-18T20:47:25.991Z,15.90
2018-04-18T20:52:25.391Z,15.90
2018-04-18T20:57:43.605Z,15.70
2018-04-18T21:00:08.784Z,15.60
2018-04-18T21:02:35.868Z,15.50
2018-04-18T21:05:02.898Z,15.40
2018-04-18T21:10:18.495Z,15.40
2018-04-18T21:12:45.659Z,15.30
2018-04-18T21:15:18.067Z,15.20
2018-04-18T21:17:46.438Z,15.10
2018-04-18T21:20:13.479Z,15.20
2018-04-18T21:22:40.596Z,15.10
2018-04-18T21:27:40.209Z,14.90
2018-04-18T21:30:11.901Z,14.80
2018-04-18T21:32:36.687Z,14.70
2018-04-18T21:35:06.763Z,14.70
2018-04-18T21:37:33.985Z,14.70
2018-04-18T21:40:01.189Z,14.80
2018-04-18T21:45:08.650Z,14.80
2018-04-18T21:47:35.638Z,14.80
2018-04-18T21:50:04.017Z,14.80
2018-04-18T21:55:09.343Z,14.70
2018-04-18T21:57:36.360Z,14.60
2018-04-18T22:00:03.421Z,14.70
2018-04-18T22:02:30.392Z,14.60
2018-04-18T22:04:58.327Z,14.60
2018-04-18T22:07:25.336Z,14.50
2018-04-18T22:09:52.327Z,14.50
2018-04-18T22:12:20.706Z,14.40
2018-04-18T22:17:21.119Z,14.30
2018-04-18T22:22:29.495Z,14.20
2018-04-18T22:24:56.801Z,14.20
2018-04-18T22:27:23.980Z,14.30
2018-04-18T22:29:52.904Z,14.20
2018-04-18T22:32:20.226Z,14.20
2018-04-18T22:34:47.276Z,14.10
2018-04-18T22:37:14.397Z,14.00
2018-04-18T22:39:41.744Z,13.90
2018-04-18T22:42:08.990Z,13.80
2018-04-18T22:44:35.983Z,13.70
2018-04-18T22:47:03.056Z,13.70
2018-04-18T22:49:30.023Z,13.70
2018-04-18T22:51:58.953Z,13.70
2018-04-18T22:54:25.972Z,13.80
2018-04-18T22:56:52.976Z,13.80
2018-04-18T22:59:20.023Z,13.90
2018-04-18T23:01:47.021Z,13.90
2018-04-18T23:04:14.273Z,13.80
2018-04-18T23:06:42.258Z,13.70
2018-04-18T23:09:09.268Z,13.60
2018-04-18T23:14:03.771Z,13.40
2018-04-18T23:16:31.051Z,13.20
2018-04-18T23:21:25.805Z,13.20
2018-04-18T23:23:52.981Z,13.20
2018-04-18T23:26:22.446Z,13.40
2018-04-18T23:28:49.770Z,13.20
2018-04-18T23:31:17.800Z,13.20
2018-04-18T23:41:30.744Z,13.30
2018-04-18T23:43:56.850Z,13.30
2018-04-18T23:46:23.858Z,13.30
2018-04-18T23:48:50.929Z,13.30
2018-04-18T23:51:17.882Z,13.30
2018-04-18T23:53:44.883Z,13.30
2018-04-18T23:56:11.941Z,13.20
2018-04-18T23:58:38.976Z,13.20
